Time;durP1;ratioP1;P1;durP2;ratioP2;P2;SDS_P1;SDS_P2;PMS_P1;PMS_P2;Temp;Humidity;BMP_temperature;BMP_pressure;BME280_temperature;BME280_humidity;BME280_pressure;Samples;Min_cycle;Max_cycle;Signal;HPM_P1;HPM_P2
2023/08/21 00:01:05;;;;;;;;;;;;;;;24.60;59.51;94048.97;5066899;28;19924;-90
2023/08/21 00:03:30;;;;;;;;;;;;;;;24.60;59.49;94045.47;5067606;28;19924;-89
2023/08/21 00:05:55;;;;;;;;;;;;;;;24.60;59.50;94042.72;5067266;28;20002;-91
2023/08/21 00:08:20;;;;;;;;;;;;;;;24.60;59.38;94045.47;5069707;28;20390;-90
2023/08/21 00:10:47;;;;;;;;;;;;;;;24.59;59.43;94044.72;5065587;28;19924;-89
2023/08/21 00:13:13;;;;;;;;;;;;;;;24.60;59.49;94046.22;5050596;28;19959;-91
2023/08/21 00:15:39;;;;;;;;;;;;;;;24.60;59.55;94048.25;5067089;28;20052;-91
2023/08/21 00:18:04;;;;;;;;;;;;;;;24.59;59.44;94041.22;5066488;28;19928;-90
2023/08/21 00:20:30;;;;;;;;;;;;;;;24.58;59.33;94048.03;5074086;28;20416;-91
2023/08/21 00:22:55;;;;;;;;;;;;;;;24.58;59.48;94040.47;5090665;28;19927;-90
2023/08/21 00:25:21;;;;;;;;;;;;;;;24.59;59.39;94038.47;5053880;28;19924;-91
2023/08/21 00:27:46;;;;;;;;;;;;;;;24.59;59.57;94044.00;5068177;28;19920;-91
2023/08/21 00:30:14;;;;;;;;;;;;;;;24.58;59.46;94032.19;5048128;28;20011;-90
2023/08/21 00:32:39;;;;;;;;;;;;;;;24.58;59.37;94037.72;5085505;28;20262;-90
2023/08/21 00:35:05;;;;;;;;;;;;;;;24.57;59.36;94039.00;5083072;28;19930;-90
2023/08/21 00:37:30;;;;;;;;;;;;;;;24.58;59.38;94040.47;5089358;27;19916;-90
2023/08/21 00:39:55;;;;;;;;;;;;;;;24.57;59.38;94039.00;5088007;28;19931;-90
2023/08/21 00:42:21;;;;;;;;;;;;;;;24.57;59.27;94033.47;5071557;28;19922;-90
2023/08/21 00:44:47;;;;;;;;;;;;;;;24.57;59.27;94041.00;5088317;28;19924;-90
2023/08/21 00:47:12;;;;;;;;;;;;;;;24.57;59.43;94035.47;5070996;28;19940;-90
2023/08/21 00:49:39;;;;;;;;;;;;;;;24.57;59.32;94027.19;5071498;28;19958;-90
2023/08/21 00:52:04;;;;;;;;;;;;;;;24.56;59.28;94031.97;5071102;28;19916;-90
2023/08/21 00:54:30;;;;;;;;;;;;;;;24.56;59.34;94036.75;5071473;28;19926;-90
2023/08/21 00:56:55;;;;;;;;;;;;;;;24.56;59.52;94034.00;5086781;28;19974;-91
2023/08/21 00:59:20;;;;;;;;;;;;;;;24.55;59.20;94029.75;5071038;28;19920;-91
2023/08/21 01:01:46;;;;;;;;;;;;;;;24.56;59.46;94043.03;5071749;28;19950;-90
2023/08/21 01:04:11;;;;;;;;;;;;;;;24.56;59.22;94034.00;5070421;28;20095;-90
2023/08/21 01:06:36;;;;;;;;;;;;;;;24.55;59.19;94047.06;5071534;28;19916;-90
2023/08/21 01:09:05;;;;;;;;;;;;;;;24.55;59.21;94041.56;5087418;28;20445;-90
2023/08/21 01:11:33;;;;;;;;;;;;;;;24.55;59.30;94038.03;5059054;28;20015;-91
2023/08/21 01:13:59;;;;;;;;;;;;;;;24.55;59.34;94036.03;5059462;28;20024;-90
2023/08/21 01:16:24;;;;;;;;;;;;;;;24.55;59.25;94035.28;5067074;28;19999;-90
2023/08/21 01:18:49;;;;;;;;;;;;;;;24.54;59.26;94042.81;5067462;28;20031;-91
2023/08/21 01:21:14;;;;;;;;;;;;;;;24.55;59.50;94038.03;5075361;28;20327;-90
2023/08/21 01:23:41;;;;;;;;;;;;;;;24.54;59.17;94042.81;5042790;28;19971;-91
2023/08/21 01:26:06;;;;;;;;;;;;;;;24.54;59.19;94047.63;5101084;28;19976;-91
2023/08/21 01:28:32;;;;;;;;;;;;;;;24.54;59.28;94045.59;5059201;28;19963;-89
2023/08/21 01:31:05;;;;;;;;;;;;;;;24.54;59.33;94044.84;5084529;28;19927;-90
2023/08/21 01:33:30;;;;;;;;;;;;;;;24.54;59.12;94031.03;5059352;28;20031;-90
2023/08/21 01:35:57;;;;;;;;;;;;;;;24.53;59.24;94044.09;5050177;28;20015;-90
2023/08/21 01:38:23;;;;;;;;;;;;;;;24.53;59.13;94044.09;5048171;28;20006;-90
2023/08/21 01:40:48;;;;;;;;;;;;;;;24.53;59.25;94041.34;5082977;28;19920;-90
2023/08/21 01:43:13;;;;;;;;;;;;;;;24.54;59.17;94042.09;5083990;28;20007;-90
2023/08/21 01:45:38;;;;;;;;;;;;;;;24.53;59.13;94035.81;5111363;27;19920;-90
2023/08/21 01:48:04;;;;;;;;;;;;;;;24.53;59.19;94038.56;5087521;28;19924;-90
2023/08/21 01:50:29;;;;;;;;;;;;;;;24.53;59.22;94037.84;5068898;28;19927;-90
2023/08/21 01:52:54;;;;;;;;;;;;;;;24.53;59.05;94044.09;5068180;28;19916;-90
2023/08/21 01:55:19;;;;;;;;;;;;;;;24.52;59.24;94039.84;5058276;28;19924;-90
2023/08/21 01:57:45;;;;;;;;;;;;;;;24.52;59.10;94044.63;5080187;28;19920;-90
2023/08/21 02:00:12;;;;;;;;;;;;;;;24.52;59.11;94039.09;5060577;28;20000;-92
2023/08/21 02:02:38;;;;;;;;;;;;;;;24.51;59.22;94041.13;5082439;28;19920;-90
2023/08/21 02:05:03;;;;;;;;;;;;;;;24.52;59.12;94033.59;5066577;28;20409;-90
2023/08/21 02:07:29;;;;;;;;;;;;;;;24.51;59.27;94037.63;5083650;28;20179;-90
2023/08/21 02:09:54;;;;;;;;;;;;;;;24.50;59.08;94030.59;5082706;28;19925;-90
2023/08/21 02:12:19;;;;;;;;;;;;;;;24.52;59.16;94030.81;5065403;28;19916;-90
2023/08/21 02:14:44;;;;;;;;;;;;;;;24.50;59.14;94025.09;5066767;28;20019;-90
2023/08/21 02:17:10;;;;;;;;;;;;;;;24.50;59.13;94023.06;5083051;28;19934;-90
2023/08/21 02:19:35;;;;;;;;;;;;;;;24.51;59.07;94029.31;5087880;28;19993;-91
2023/08/21 02:22:00;;;;;;;;;;;;;;;24.51;59.06;94026.56;5066123;28;19920;-90
2023/08/21 02:24:25;;;;;;;;;;;;;;;24.50;59.00;94019.56;5078346;28;19923;-90
2023/08/21 02:26:51;;;;;;;;;;;;;;;24.50;59.11;94030.59;5070406;28;19966;-90
2023/08/21 02:29:16;;;;;;;;;;;;;;;24.51;59.10;94027.31;5086186;28;20011;-90
2023/08/21 02:31:41;;;;;;;;;;;;;;;24.49;59.11;94032.63;5087144;28;20358;-91
2023/08/21 02:34:07;;;;;;;;;;;;;;;24.50;59.13;94036.13;5057682;28;19950;-90
2023/08/21 02:36:33;;;;;;;;;;;;;;;24.49;59.14;94031.88;5066862;28;19923;-90
2023/08/21 02:38:58;;;;;;;;;;;;;;;24.49;59.00;94032.63;5093512;28;19924;-90
2023/08/21 02:41:23;;;;;;;;;;;;;;;24.48;59.18;94033.16;5065993;28;19924;-90
2023/08/21 02:43:48;;;;;;;;;;;;;;;24.48;59.01;94020.09;5076587;28;20023;-89
2023/08/21 02:46:14;;;;;;;;;;;;;;;24.48;59.00;94030.41;5060863;28;20370;-90
2023/08/21 02:48:39;;;;;;;;;;;;;;;24.49;58.97;94026.34;5061779;28;20019;-91
2023/08/21 02:51:04;;;;;;;;;;;;;;;24.48;58.89;94020.09;5070164;28;19950;-90
2023/08/21 02:53:29;;;;;;;;;;;;;;;24.48;59.04;94020.09;5086729;28;19998;-90
2023/08/21 02:55:55;;;;;;;;;;;;;;;24.47;58.94;94021.38;5068762;28;19924;-90
2023/08/21 02:58:20;;;;;;;;;;;;;;;24.47;59.02;94020.63;5085914;28;19920;-90
2023/08/21 03:00:45;;;;;;;;;;;;;;;24.48;58.89;94013.81;5052031;28;19980;-90
2023/08/21 03:03:11;;;;;;;;;;;;;;;24.47;59.06;94023.38;5063565;28;19920;-91
2023/08/21 03:05:36;;;;;;;;;;;;;;;24.47;58.88;94015.84;5062070;28;19920;-90
2023/08/21 03:08:01;;;;;;;;;;;;;;;24.47;58.92;94017.84;5045952;28;20015;-90
2023/08/21 03:10:28;;;;;;;;;;;;;;;24.46;58.91;94006.09;5064392;28;20014;-90
2023/08/21 03:12:54;;;;;;;;;;;;;;;24.46;58.90;94014.38;5086361;28;20401;-90
2023/08/21 03:15:19;;;;;;;;;;;;;;;24.47;58.88;94013.06;5068983;28;20354;-90
2023/08/21 03:17:44;;;;;;;;;;;;;;;24.47;58.87;94010.31;5103133;28;19926;-90
2023/08/21 03:20:10;;;;;;;;;;;;;;;24.48;58.91;94008.28;5088714;28;20294;-90
2023/08/21 03:22:35;;;;;;;;;;;;;;;24.47;58.95;94015.09;5079194;28;20012;-90
2023/08/21 03:25:01;;;;;;;;;;;;;;;24.46;58.82;94008.84;5073966;28;20347;-91
2023/08/21 03:27:26;;;;;;;;;;;;;;;24.48;58.76;94016.59;5066125;28;19923;-90
2023/08/21 03:29:51;;;;;;;;;;;;;;;24.47;58.67;94013.06;5061693;28;19924;-90
2023/08/21 03:32:17;;;;;;;;;;;;;;;24.48;58.38;94011.78;5068529;28;19920;-88
2023/08/21 03:34:42;;;;;;;;;;;;;;;24.49;58.20;94007.75;5097134;28;19931;-87
2023/08/21 03:37:08;;;;;;;;;;;;;;;24.48;57.88;94011.06;5083394;28;19924;-88
2023/08/21 03:39:33;;;;;;;;;;;;;;;24.41;56.15;94006.19;5064750;28;19924;-88
2023/08/21 03:41:58;;;;;;;;;;;;;;;24.34;55.39;94017.91;5065178;28;19928;-88
2023/08/21 03:44:24;;;;;;;;;;;;;;;24.24;55.12;94015.59;5081992;28;19924;-89
2023/08/21 03:46:49;;;;;;;;;;;;;;;24.22;54.65;94007.09;5081589;28;19921;-91
2023/08/21 03:49:14;;;;;;;;;;;;;;;24.15;54.54;94016.00;5078866;28;20761;-90
2023/08/21 03:51:41;;;;;;;;;;;;;;;24.05;54.55;94009.44;5067637;28;20363;-91
2023/08/21 03:54:07;;;;;;;;;;;;;;;23.95;54.72;94024.97;5061651;28;19924;-91
2023/08/21 03:56:32;;;;;;;;;;;;;;;23.81;55.06;94012.47;5080501;28;19924;-92
2023/08/21 03:58:58;;;;;;;;;;;;;;;23.73;55.00;94019.88;5111964;27;19968;-91
2023/08/21 04:01:24;;;;;;;;;;;;;;;23.73;55.00;94025.41;5085256;28;19924;-90
2023/08/21 04:03:50;;;;;;;;;;;;;;;23.68;55.04;94026.25;5058085;28;19920;-91
2023/08/21 04:06:15;;;;;;;;;;;;;;;23.64;55.13;94015.53;5049900;28;20006;-90
2023/08/21 04:08:41;;;;;;;;;;;;;;;23.62;55.13;94023.59;5067656;28;20358;-91
2023/08/21 04:11:07;;;;;;;;;;;;;;;23.61;54.99;94022.09;5092524;27;19929;-92
2023/08/21 04:13:32;;;;;;;;;;;;;;;23.58;55.20;94025.94;5088854;28;20229;-91
2023/08/21 04:15:58;;;;;;;;;;;;;;;23.57;54.88;94024.47;5069241;28;19976;-90
2023/08/21 04:18:23;;;;;;;;;;;;;;;23.50;54.99;94025.78;5089617;28;19924;-89
2023/08/21 04:20:48;;;;;;;;;;;;;;;23.46;55.16;94019.84;5067578;28;19924;-89
2023/08/21 04:23:14;;;;;;;;;;;;;;;23.42;55.28;94022.16;5069512;28;19950;-90
2023/08/21 04:25:39;;;;;;;;;;;;;;;23.42;55.36;94021.41;5081932;28;19916;-91
2023/08/21 04:28:04;;;;;;;;;;;;;;;23.38;55.35;94023.78;5076308;28;19999;-91
2023/08/21 04:30:30;;;;;;;;;;;;;;;23.38;55.45;94018.25;5100912;28;19923;-91
2023/08/21 04:32:56;;;;;;;;;;;;;;;23.33;55.50;94021.84;5089688;28;19920;-91
2023/08/21 04:35:21;;;;;;;;;;;;;;;23.30;55.59;94028.44;5084564;28;19924;-91
2023/08/21 04:37:48;;;;;;;;;;;;;;;23.28;55.79;94022.69;5084994;28;19927;-90
2023/08/21 04:40:13;;;;;;;;;;;;;;;23.31;55.83;94021.63;5062302;28;19927;-91
2023/08/21 04:42:38;;;;;;;;;;;;;;;23.27;55.88;94019.19;5071343;28;19928;-90
2023/08/21 04:45:05;;;;;;;;;;;;;;;23.28;56.08;94028.22;5071180;28;20045;-90
2023/08/21 04:47:38;;;;;;;;;;;;;;;23.32;56.01;94023.13;5084177;28;19947;-92
2023/08/21 04:50:03;;;;;;;;;;;;;;;23.30;56.13;94029.16;5089999;28;19924;-89
2023/08/21 04:52:28;;;;;;;;;;;;;;;23.29;56.27;94024.19;5069762;28;20011;-90
2023/08/21 04:54:54;;;;;;;;;;;;;;;23.32;56.30;94031.41;5069657;28;19927;-91
2023/08/21 04:57:20;;;;;;;;;;;;;;;23.30;56.40;94033.94;5076653;28;19920;-89
2023/08/21 04:59:46;;;;;;;;;;;;;;;23.26;56.68;94025.97;5104249;27;19950;-91
2023/08/21 05:02:11;;;;;;;;;;;;;;;23.27;57.03;94027.47;5095225;28;19924;-90
2023/08/21 05:04:37;;;;;;;;;;;;;;;23.25;57.23;94021.72;5091899;28;19973;-92
2023/08/21 05:07:04;;;;;;;;;;;;;;;23.24;57.36;94025.75;5060433;28;20611;-91
2023/08/21 05:09:29;;;;;;;;;;;;;;;23.28;57.59;94022.69;5052360;28;19924;-91
2023/08/21 05:12:07;;;;;;;;;;;;;;;23.27;58.36;94021.19;5105189;28;20450;-94
2023/08/21 05:14:32;;;;;;;;;;;;;;;23.26;58.35;94031.50;5092086;28;19920;-91
2023/08/21 05:16:58;;;;;;;;;;;;;;;23.23;58.33;94035.31;5090964;28;19924;-92
2023/08/21 05:19:25;;;;;;;;;;;;;;;23.18;58.23;94022.34;5094370;28;19954;-92
2023/08/21 05:21:50;;;;;;;;;;;;;;;23.16;58.18;94035.94;5088147;28;19928;-91
2023/08/21 05:24:17;;;;;;;;;;;;;;;23.17;58.10;94029.88;5071013;28;19921;-92
2023/08/21 05:26:49;;;;;;;;;;;;;;;23.17;58.05;94032.63;5082131;28;20374;-92
2023/08/21 05:29:14;;;;;;;;;;;;;;;23.21;58.01;94032.31;5077553;28;19920;-93
2023/08/21 05:31:47;;;;;;;;;;;;;;;23.22;58.13;94031.81;5074039;28;19927;-95
2023/08/21 05:34:12;;;;;;;;;;;;;;;23.23;58.30;94029.78;5077996;28;19920;-93
2023/08/21 05:36:37;;;;;;;;;;;;;;;23.25;58.59;94033.50;5072195;28;19931;-91
2023/08/21 05:39:05;;;;;;;;;;;;;;;23.32;58.51;94034.91;5073909;28;20288;-91
2023/08/21 05:41:34;;;;;;;;;;;;;;;23.30;58.89;94031.19;5082739;28;19923;-95
2023/08/21 05:44:01;;;;;;;;;;;;;;;23.32;59.24;94036.91;5067512;28;19928;-95
2023/08/21 05:46:29;;;;;;;;;;;;;;;23.36;58.95;94037.34;5041497;28;19964;-95
2023/08/21 05:48:55;;;;;;;;;;;;;;;23.42;58.83;94033.19;5071002;28;20010;-92
2023/08/21 05:51:22;;;;;;;;;;;;;;;23.47;58.82;94039.91;5072469;28;20014;-91
2023/08/21 05:53:48;;;;;;;;;;;;;;;23.54;58.78;94036.56;5066838;28;20015;-90
2023/08/21 05:56:13;;;;;;;;;;;;;;;23.58;58.45;94032.22;5078889;28;19981;-89
2023/08/21 05:58:38;;;;;;;;;;;;;;;23.62;58.36;94045.66;5098952;28;19920;-90
2023/08/21 06:01:03;;;;;;;;;;;;;;;23.68;58.55;94043.56;5101611;28;19928;-89
2023/08/21 06:03:29;;;;;;;;;;;;;;;23.72;58.14;94038.47;5086246;28;19944;-87
2023/08/21 06:05:54;;;;;;;;;;;;;;;23.78;58.13;94043.88;5086395;28;20368;-89
2023/08/21 06:08:19;;;;;;;;;;;;;;;23.82;58.63;94047.78;5070174;28;19916;-91
2023/08/21 06:10:45;;;;;;;;;;;;;;;23.87;58.62;94041.44;5070439;28;19966;-88
2023/08/21 06:13:10;;;;;;;;;;;;;;;23.92;58.09;94048.13;5085899;28;19920;-90
2023/08/21 06:15:36;;;;;;;;;;;;;;;23.98;58.12;94043.25;5088403;28;20330;-90
2023/08/21 06:18:01;;;;;;;;;;;;;;;24.00;57.72;94046.22;5069933;28;20516;-90
2023/08/21 06:20:27;;;;;;;;;;;;;;;23.99;57.71;94038.47;5069180;28;20007;-91
2023/08/21 06:22:52;;;;;;;;;;;;;;;24.02;57.84;94042.91;5072165;28;20373;-93
2023/08/21 06:25:19;;;;;;;;;;;;;;;24.03;57.69;94042.38;5069386;28;19921;-90
2023/08/21 06:27:45;;;;;;;;;;;;;;;24.06;57.66;94041.31;5080848;28;20326;-93
2023/08/21 06:30:10;;;;;;;;;;;;;;;24.08;57.56;94035.25;5083917;28;20067;-90
2023/08/21 06:32:36;;;;;;;;;;;;;;;24.10;57.51;94030.69;5069156;28;20403;-90
2023/08/21 06:35:01;;;;;;;;;;;;;;;24.13;57.40;94026.84;5087973;28;20362;-92
2023/08/21 06:37:28;;;;;;;;;;;;;;;24.16;57.29;94033.31;5089755;28;19923;-92
2023/08/21 06:39:53;;;;;;;;;;;;;;;24.18;57.35;94039.06;5072740;28;19963;-93
2023/08/21 06:42:19;;;;;;;;;;;;;;;24.20;57.40;94028.97;5074936;27;19965;-90
2023/08/21 06:44:45;;;;;;;;;;;;;;;24.22;57.34;94025.69;5056289;28;19987;-92
2023/08/21 06:47:10;;;;;;;;;;;;;;;24.25;57.37;94027.38;5050539;28;19931;-93
2023/08/21 06:49:37;;;;;;;;;;;;;;;24.27;57.25;94031.09;5058244;28;19920;-92
2023/08/21 06:52:03;;;;;;;;;;;;;;;24.30;57.21;94029.28;5089824;28;19927;-92
2023/08/21 06:54:28;;;;;;;;;;;;;;;24.34;57.19;94031.72;5079926;28;20302;-93
2023/08/21 06:56:54;;;;;;;;;;;;;;;24.36;57.25;94034.69;5086608;28;19931;-94
2023/08/21 06:59:21;;;;;;;;;;;;;;;24.39;57.13;94033.63;5072339;28;19920;-95
2023/08/21 07:01:46;;;;;;;;;;;;;;;24.41;57.18;94034.59;5088279;28;19924;-91
2023/08/21 07:04:12;;;;;;;;;;;;;;;24.44;57.14;94027.25;5075179;28;20275;-92
2023/08/21 07:06:37;;;;;;;;;;;;;;;24.46;57.05;94028.19;5070608;28;19923;-92
2023/08/21 07:09:02;;;;;;;;;;;;;;;24.47;57.24;94026.88;5073070;28;20335;-92
2023/08/21 07:11:27;;;;;;;;;;;;;;;24.48;57.30;94022.09;5083810;28;19987;-93
2023/08/21 07:13:53;;;;;;;;;;;;;;;24.51;57.39;94029.31;5082487;28;20346;-93
2023/08/21 07:16:18;;;;;;;;;;;;;;;24.52;57.26;94026.03;5101044;28;19958;-92
2023/08/21 07:18:43;;;;;;;;;;;;;;;24.55;57.28;94029.75;5087759;28;19924;-93
2023/08/21 07:21:08;;;;;;;;;;;;;;;24.54;57.42;94022.72;5073174;28;19928;-91
2023/08/21 07:23:35;;;;;;;;;;;;;;;24.55;57.43;94024.97;5092058;28;19927;-91
2023/08/21 07:26:00;;;;;;;;;;;;;;;24.57;57.54;94036.22;5090427;28;20254;-92
2023/08/21 07:28:26;;;;;;;;;;;;;;;24.60;57.69;94037.19;5091183;28;20031;-90
2023/08/21 07:30:57;;;;;;;;;;;;;;;24.62;57.76;94031.13;5058389;28;20317;-90
2023/08/21 07:33:23;;;;;;;;;;;;;;;24.64;57.84;94028.56;5084726;28;19928;-92
2023/08/21 07:35:56;;;;;;;;;;;;;;;24.67;57.82;94036.53;5078213;28;19931;-91
2023/08/21 07:38:21;;;;;;;;;;;;;;;24.66;57.66;94037.06;5078039;28;19938;-90
2023/08/21 07:40:46;;;;;;;;;;;;;;;24.67;57.87;94036.53;5074604;28;19955;-92
2023/08/21 07:43:12;;;;;;;;;;;;;;;24.69;57.80;94045.00;5073224;28;20671;-90
2023/08/21 07:45:37;;;;;;;;;;;;;;;24.71;57.83;94038.94;5088612;28;19932;-91
2023/08/21 07:48:04;;;;;;;;;;;;;;;24.72;57.89;94048.72;5091582;28;19924;-90
2023/08/21 07:50:30;;;;;;;;;;;;;;;24.74;57.62;94043.41;5093624;28;20431;-90
2023/08/21 07:52:55;;;;;;;;;;;;;;;24.75;57.59;94034.56;5058193;28;19971;-91
2023/08/21 07:55:20;;;;;;;;;;;;;;;24.78;57.58;94043.81;5078066;28;20372;-90
2023/08/21 07:57:45;;;;;;;;;;;;;;;24.81;57.42;94051.03;5093072;28;19916;-91
2023/08/21 08:00:11;;;;;;;;;;;;;;;24.84;57.40;94045.19;5052109;28;19978;-94
2023/08/21 08:02:37;;;;;;;;;;;;;;;24.88;57.40;94051.13;5090056;28;19920;-92
2023/08/21 08:05:02;;;;;;;;;;;;;;;24.92;57.25;94057.03;5062180;28;20350;-91
2023/08/21 08:07:28;;;;;;;;;;;;;;;24.95;56.92;94052.47;5113770;27;19920;-92
2023/08/21 08:09:54;;;;;;;;;;;;;;;24.98;57.18;94054.19;5078145;28;20007;-92
2023/08/21 08:12:19;;;;;;;;;;;;;;;25.00;56.95;94051.63;5099016;27;19923;-92
2023/08/21 08:14:45;;;;;;;;;;;;;;;25.03;56.97;94052.56;5081627;28;19949;-90
2023/08/21 08:17:11;;;;;;;;;;;;;;;25.04;56.84;94049.25;5075362;28;19916;-91
2023/08/21 08:19:36;;;;;;;;;;;;;;;25.09;56.63;94056.69;5104840;28;20371;-92
2023/08/21 08:22:01;;;;;;;;;;;;;;;25.11;56.89;94059.66;5086744;28;19969;-90
2023/08/21 08:24:27;;;;;;;;;;;;;;;25.13;56.79;94048.78;5094759;28;20318;-93
2023/08/21 08:26:55;;;;;;;;;;;;;;;25.16;56.53;94063.56;5096642;28;20362;-94
2023/08/21 08:29:20;;;;;;;;;;;;;;;25.17;56.76;94054.72;5070770;28;20397;-92
2023/08/21 08:31:52;;;;;;;;;;;;;;;25.19;56.57;94052.16;5068983;28;19916;-91
2023/08/21 08:34:20;;;;;;;;;;;;;;;25.22;56.68;94055.88;5071968;28;19935;-91
2023/08/21 08:36:47;;;;;;;;;;;;;;;25.22;56.75;94056.63;5078347;28;20024;-92
2023/08/21 08:39:12;;;;;;;;;;;;;;;25.25;56.34;94052.03;5094287;28;19966;-91
2023/08/21 08:41:38;;;;;;;;;;;;;;;25.24;56.70;94059.59;5058652;28;20332;-90
2023/08/21 08:44:03;;;;;;;;;;;;;;;25.24;56.61;94054.03;5066423;28;19982;-91
2023/08/21 08:46:28;;;;;;;;;;;;;;;25.24;56.48;94058.84;5091453;28;19950;-91
2023/08/21 08:48:54;;;;;;;;;;;;;;;25.26;56.34;94061.81;5074846;28;19931;-94
2023/08/21 08:51:19;;;;;;;;;;;;;;;25.25;56.71;94055.53;5055362;28;19920;-92
2023/08/21 08:53:44;;;;;;;;;;;;;;;25.25;56.67;94057.56;5058323;28;19974;-90
2023/08/21 08:56:09;;;;;;;;;;;;;;;25.26;56.60;94059.78;5083424;28;20321;-91
2023/08/21 08:58:36;;;;;;;;;;;;;;;25.27;56.30;94057.75;5076579;28;19924;-91
2023/08/21 09:01:02;;;;;;;;;;;;;;;25.27;56.29;94052.97;5075253;28;20338;-93
2023/08/21 09:03:28;;;;;;;;;;;;;;;25.26;56.52;94053.50;5063625;28;19924;-91
2023/08/21 09:05:54;;;;;;;;;;;;;;;25.26;56.41;94054.25;5071522;28;20058;-92
2023/08/21 09:08:20;;;;;;;;;;;;;;;25.26;56.41;94057.03;5050059;28;19954;-91
2023/08/21 09:10:45;;;;;;;;;;;;;;;25.27;56.48;94052.22;5068611;28;19917;-91
2023/08/21 09:13:17;;;;;;;;;;;;;;;25.26;56.39;94047.97;5067036;28;19921;-92
2023/08/21 09:15:43;;;;;;;;;;;;;;;25.25;56.29;94044.47;5053400;28;20440;-92
2023/08/21 09:18:13;;;;;;;;;;;;;;;25.25;56.28;94046.50;5060871;28;20789;-90
2023/08/21 09:20:40;;;;;;;;;;;;;;;25.22;56.46;94053.84;5081793;28;19996;-91
2023/08/21 09:23:06;;;;;;;;;;;;;;;25.23;56.44;94052.56;5066723;28;19924;-92
2023/08/21 09:25:36;;;;;;;;;;;;;;;25.22;56.51;94050.34;5044910;28;20065;-92
2023/08/21 09:28:04;;;;;;;;;;;;;;;25.21;56.62;94051.63;5081956;28;19924;-91
2023/08/21 09:30:29;;;;;;;;;;;;;;;25.20;56.61;94048.09;5064849;28;19916;-92
2023/08/21 09:32:57;;;;;;;;;;;;;;;25.18;56.56;94039.59;5077967;28;19920;-91
2023/08/21 09:35:23;;;;;;;;;;;;;;;25.18;56.72;94042.38;5076993;28;19929;-93
2023/08/21 09:37:48;;;;;;;;;;;;;;;25.19;56.68;94043.09;5084628;28;19926;-91
2023/08/21 09:40:14;;;;;;;;;;;;;;;25.18;56.86;94042.38;5087744;28;19924;-90
2023/08/21 09:42:40;;;;;;;;;;;;;;;25.18;56.65;94041.63;5088559;28;19920;-91
2023/08/21 09:45:05;;;;;;;;;;;;;;;25.18;56.68;94045.13;5070967;28;19927;-90
2023/08/21 09:47:31;;;;;;;;;;;;;;;25.17;56.88;94040.13;5070965;28;19963;-90
2023/08/21 09:49:56;;;;;;;;;;;;;;;25.17;56.70;94040.88;5096180;28;19928;-92
2023/08/21 09:52:22;;;;;;;;;;;;;;;25.16;57.06;94042.16;5107827;27;19927;-92
2023/08/21 09:54:47;;;;;;;;;;;;;;;25.18;56.77;94041.63;5080389;28;19967;-91
2023/08/21 09:57:13;;;;;;;;;;;;;;;25.17;56.78;94035.34;5091778;28;20435;-91
2023/08/21 09:59:40;;;;;;;;;;;;;;;25.17;57.01;94040.88;5087467;28;19926;-92
2023/08/21 10:02:06;;;;;;;;;;;;;;;25.16;56.87;94033.88;5086614;28;20374;-92
2023/08/21 10:04:31;;;;;;;;;;;;;;;25.18;56.95;94030.56;5069935;28;20396;-92
2023/08/21 10:06:57;;;;;;;;;;;;;;;25.19;56.79;94034.81;5085979;28;20293;-93
2023/08/21 10:09:23;;;;;;;;;;;;;;;25.19;56.95;94029.28;5066408;28;19932;-91
2023/08/21 10:11:48;;;;;;;;;;;;;;;25.18;56.87;94028.53;5070909;28;19955;-92
2023/08/21 10:14:13;;;;;;;;;;;;;;;25.18;56.87;94039.59;5069518;28;19955;-92
2023/08/21 10:16:38;;;;;;;;;;;;;;;25.20;56.87;94030.75;5088729;28;19990;-90
2023/08/21 10:19:05;;;;;;;;;;;;;;;25.19;56.84;94026.50;5069335;28;19962;-91
2023/08/21 10:21:34;;;;;;;;;;;;;;;25.20;56.75;94031.50;5070431;28;19997;-92
2023/08/21 10:24:00;;;;;;;;;;;;;;;25.18;56.70;94025.75;5087244;28;19928;-92
2023/08/21 10:26:27;;;;;;;;;;;;;;;25.18;56.78;94027.78;5085767;28;20340;-90
2023/08/21 10:28:52;;;;;;;;;;;;;;;25.18;56.53;94025.75;5068938;28;19963;-88
2023/08/21 10:31:27;;;;;;;;;;;;;;;25.20;56.73;94028.75;5086306;28;19971;-89
2023/08/21 10:33:52;;;;;;;;;;;;;;;25.20;56.77;94030.75;5085511;28;20433;-89
2023/08/21 10:36:36;;;;;;;;;;;;;;;25.20;56.93;94019.69;5067513;28;19927;-90
2023/08/21 10:39:02;;;;;;;;;;;;;;;25.21;56.56;94026.72;5087232;28;19927;-89
2023/08/21 10:41:28;;;;;;;;;;;;;;;25.21;56.92;94035.00;5073765;28;20030;-92
2023/08/21 10:43:53;;;;;;;;;;;;;;;25.20;56.64;94031.50;5069593;28;19979;-91
2023/08/21 10:46:18;;;;;;;;;;;;;;;25.20;56.73;94034.28;5070683;28;20497;-91
2023/08/21 10:48:43;;;;;;;;;;;;;;;25.21;57.00;94038.53;5071986;28;20419;-91
2023/08/21 10:51:09;;;;;;;;;;;;;;;25.20;57.03;94028.75;5093879;28;19920;-91
2023/08/21 10:53:34;;;;;;;;;;;;;;;25.21;57.11;94032.25;5087292;28;19927;-92
2023/08/21 10:56:03;;;;;;;;;;;;;;;25.22;56.94;94028.19;5071689;28;20192;-90
2023/08/21 10:58:28;;;;;;;;;;;;;;;25.22;57.14;94031.72;5060960;28;20043;-91
2023/08/21 11:00:58;;;;;;;;;;;;;;;25.21;57.29;94026.72;5090041;28;20352;-91
2023/08/21 11:03:23;;;;;;;;;;;;;;;25.21;56.94;94018.41;5089284;28;19923;-92
2023/08/21 11:06:04;;;;;;;;;;;;;;;25.21;56.86;94015.63;5090857;28;20397;-91
2023/08/21 11:08:29;;;;;;;;;;;;;;;25.19;57.29;94026.50;5089658;28;20366;-91
2023/08/21 11:10:54;;;;;;;;;;;;;;;25.20;57.20;94022.47;5073383;28;19916;-89
2023/08/21 11:13:22;;;;;;;;;;;;;;;25.18;57.13;94025.03;5072098;28;19959;-90
2023/08/21 11:15:47;;;;;;;;;;;;;;;25.19;57.24;94032.03;5072885;28;19916;-89
2023/08/21 11:18:13;;;;;;;;;;;;;;;25.19;56.99;94021.72;5088452;28;19943;-89
2023/08/21 11:20:38;;;;;;;;;;;;;;;25.20;57.23;94014.91;5073602;28;20424;-89
2023/08/21 11:23:07;;;;;;;;;;;;;;;25.21;57.01;94015.63;5071677;28;19930;-89
2023/08/21 11:25:32;;;;;;;;;;;;;;;25.22;57.18;94017.13;5089516;28;19934;-89
2023/08/21 11:27:58;;;;;;;;;;;;;;;25.21;57.22;94015.63;5105559;28;19924;-89
2023/08/21 11:30:24;;;;;;;;;;;;;;;25.20;57.13;94012.13;5089074;28;19940;-89
2023/08/21 11:33:04;;;;;;;;;;;;;;;25.22;57.31;94022.66;5073136;28;20427;-90
2023/08/21 11:35:29;;;;;;;;;;;;;;;25.22;57.42;94015.09;5061156;28;19916;-90
2023/08/21 11:37:54;;;;;;;;;;;;;;;25.22;57.16;94012.34;5072937;28;19921;-90
2023/08/21 11:40:19;;;;;;;;;;;;;;;25.22;57.42;94008.81;5069700;28;20050;-89
2023/08/21 11:42:45;;;;;;;;;;;;;;;25.24;57.46;94017.34;5062037;28;19966;-89
2023/08/21 11:45:10;;;;;;;;;;;;;;;25.23;57.53;94013.81;5051975;28;19920;-89
2023/08/21 11:47:36;;;;;;;;;;;;;;;25.27;57.38;94011.47;5052839;28;20346;-90
2023/08/21 11:50:05;;;;;;;;;;;;;;;25.26;57.55;94012.00;5086430;28;20045;-90
2023/08/21 11:52:31;;;;;;;;;;;;;;;25.26;57.65;94012.75;5097044;27;20390;-90
2023/08/21 11:54:57;;;;;;;;;;;;;;;25.27;57.57;94016.25;5084123;28;19928;-91
2023/08/21 11:57:22;;;;;;;;;;;;;;;25.27;57.42;94013.47;5067987;28;19928;-90
2023/08/21 11:59:51;;;;;;;;;;;;;;;25.29;57.33;94008.16;5068920;28;19927;-90
2023/08/21 12:02:17;;;;;;;;;;;;;;;25.31;57.30;94015.91;5094178;27;19923;-90
2023/08/21 12:04:42;;;;;;;;;;;;;;;25.31;57.21;94008.34;5087840;28;20397;-92
2023/08/21 12:07:07;;;;;;;;;;;;;;;25.31;57.48;94013.88;5066495;28;19928;-93
2023/08/21 12:09:33;;;;;;;;;;;;;;;25.31;57.24;94013.88;5049390;28;19927;-92
2023/08/21 12:11:58;;;;;;;;;;;;;;;25.32;57.53;94006.31;5084501;28;19924;-92
2023/08/21 12:14:23;;;;;;;;;;;;;;;25.32;57.61;94011.88;5064417;28;19927;-92
2023/08/21 12:16:48;;;;;;;;;;;;;;;25.33;57.35;94005.78;5073676;28;19922;-92
2023/08/21 12:19:14;;;;;;;;;;;;;;;25.34;57.70;94009.28;5072099;28;19931;-91
2023/08/21 12:21:39;;;;;;;;;;;;;;;25.35;57.63;94002.44;5071601;28;19920;-91
2023/08/21 12:24:06;;;;;;;;;;;;;;;25.33;57.72;94005.03;5051344;28;19928;-91
2023/08/21 12:26:31;;;;;;;;;;;;;;;25.34;57.62;94006.50;5097233;27;20385;-91
2023/08/21 12:28:56;;;;;;;;;;;;;;;25.34;57.63;94000.97;5070991;28;19925;-91
2023/08/21 12:31:21;;;;;;;;;;;;;;;25.34;57.65;94000.97;5068395;28;19928;-92
2023/08/21 12:33:47;;;;;;;;;;;;;;;25.34;57.87;94004.47;5083538;28;19935;-88
2023/08/21 12:36:12;;;;;;;;;;;;;;;25.35;58.45;94005.22;5085246;27;20467;-88
2023/08/21 12:38:37;;;;;;;;;;;;;;;25.39;58.39;94002.84;5087385;28;19955;-87
2023/08/21 12:41:02;;;;;;;;;;;;;;;25.40;58.52;93996.03;5087403;27;19920;-85